Nearby METAR Reports

 

GCLP - Las Palmas/Gando, Spain
Distance from station: NE 26km
Updated: 12/11/2019 23:00
Few Clouds
Few Clouds
 Wind from N
Wind: N 37 km/h
Temperature: 20°C
Dew Point: 15°C
Humidity: 73%
Barometer: 1018 hPa
Clouds: Few Clouds
Visibility: 10 km
Cloud details: Few Clouds 762 m
2019/11/12 23:00 GCLP 122300Z 36020KT 9999 FEW025 20/15 Q1018 NOSIG
GCTS - Tenerife Sur/Rei, Spain
Distance from station: WNW 102km
Updated: 12/11/2019 23:00
Few Clouds
Few Clouds
 Wind from ENE
Wind: ENE 28 km/h
Temperature: 21°C
Dew Point: 12°C
Humidity: 57%
Barometer: 1017 hPa
Clouds: Few Clouds
Visibility: 10 km
Cloud details: Few Clouds 914 m
2019/11/12 23:00 GCTS 122300Z 06015KT 9999 FEW030 21/12 Q1017 NOSIG
 
GCXO - Tenerife/Los Rod, Spain
Distance from station: NW 110km
Updated: 12/11/2019 23:00
Few Clouds
Few Clouds
 Wind from NW
Wind: NW 13 km/h
Temperature: 15°C
Dew Point: 13°C
Humidity: 88%
Barometer: 1021 hPa
Clouds: Few Clouds
Visibility: 10 km
Cloud details: Few Clouds 244 m
2019/11/12 23:00 GCXO 122300Z 31007KT 280V360 9999 FEW008 15/13 Q1021 NOSIG
GCGM - La Gomera Arpt, Spain
Distance from station: W 164km
Updated: 12/11/2019 23:00
Clear
Clear
 Wind from varies
Wind: varies 15 km/h
Temperature: 20°C
Dew Point: 14°C
Humidity: 69%
Barometer: 1018 hPa
Clouds: Clear
Visibility: 10 km
2019/11/12 23:00 GCGM 122300Z AUTO VRB08KT 9999 NCD 20/14 Q1018 RMK R09/VRB03KT ARP/VRB05KT
 
GCFV - Fuerteventura Ar, Spain
Distance from station: ENE 183km
Updated: 12/11/2019 23:00
Clear
Clear
 Wind from N
Wind: N 26 km/h
Temperature: 20°C
Dew Point: 14°C
Humidity: 69%
Barometer: 1017 hPa
Clouds: Clear
Visibility: 10 km
2019/11/12 23:00 GCFV 122300Z AUTO 01014KT 9999 NCD 20/14 Q1017
GCHI - Hierro Airport, Spain
Distance from station: W 226km
Updated: 12/11/2019 23:00
Mostly cloudy
Mostly cloudy
 Wind from NNE
Wind: NNE 35 km/h, Gust: 54 km/h
Temperature: 21°C
Dew Point: 17°C
Humidity: 78%
Barometer: 1019 hPa
Clouds: Mostly cloudy
Visibility: 9 km
Cloud details: Few Clouds 549 m
Mostly cloudy 701 m
2019/11/12 23:00 GCHI 122300Z AUTO 03019G29KT 350V050 9000 FEW018 BKN023 21/17 Q1019
 
GCLA - La Palma Airport, Spain
Distance from station: WNW 233km
Updated: 12/11/2019 23:00
Few Clouds
Few Clouds
 Wind from NNE
Wind: NNE 31 km/h
Temperature: 20°C
Dew Point: 15°C
Humidity: 73%
Barometer: 1020 hPa
Clouds: Few Clouds
Visibility: 10 km
Cloud details: Few Clouds 1128 m
2019/11/12 23:00 GCLA 122300Z AUTO 02017KT 9999 FEW037 20/15 Q1020
GCRR - Arrecife/Lanzaro, Spain
Distance from station: NE 234km
Updated: 12/11/2019 23:00
Few Clouds
Few Clouds
 Wind from N
Wind: N 57 km/h
Temperature: 20°C
Dew Point: 16°C
Humidity: 78%
Barometer: 1016 hPa
Clouds: Few Clouds
Visibility: 10 km
Cloud details: Few Clouds 762 m
2019/11/12 23:00 GCRR 122300Z 01031KT 9999 FEW025 20/16 Q1016
 
LPMA - Funchal/Madeira, Portugal
Distance from station: NNW 556km
Updated: 12/11/2019 23:00
Few Clouds
Few Clouds
 Wind from N
Wind: N 24 km/h
Temperature: 20°C
Dew Point: 14°C
Humidity: 69%
Barometer: 1023 hPa
Clouds: Few Clouds
Visibility: 10 km
Cloud details: Few Clouds 457 m
2019/11/12 23:00 LPMA 122300Z 01013KT 9999 FEW015 20/14 Q1023
LPPS - Porto Santo Isla, Portugal
Distance from station: N 594km
Updated: 12/11/2019 23:00
Few Clouds
Few Clouds
 Wind from NE
Wind: NE 19 km/h
Temperature: 19°C
Dew Point: 14°C
Humidity: 73%
Barometer: 1023 hPa
Clouds: Few Clouds
Visibility: 10 km
Cloud details: Few Clouds 457 m
2019/11/12 23:00 LPPS 122300Z 04010KT 360V070 9999 FEW015 19/14 Q1023